createdAt,value
2023-05-21T00:03:46.908Z,16.30
2023-05-21T00:07:53.300Z,16.20
2023-05-21T00:11:57.461Z,16.20
2023-05-21T00:16:00.420Z,16.10
2023-05-21T00:20:06.225Z,16.10
2023-05-21T00:24:09.406Z,16.10
2023-05-21T00:28:13.684Z,16.00
2023-05-21T00:32:16.515Z,16.00
2023-05-21T00:36:23.711Z,16.00
2023-05-21T00:40:26.724Z,15.90
2023-05-21T00:44:34.499Z,15.90
2023-05-21T00:48:38.086Z,15.90
2023-05-21T00:52:42.556Z,15.80
2023-05-21T00:56:45.734Z,15.80
2023-05-21T01:00:50.125Z,15.80
2023-05-21T01:04:55.911Z,15.80
2023-05-21T01:08:59.566Z,15.70
2023-05-21T01:13:02.956Z,15.70
2023-05-21T01:17:10.281Z,15.70
2023-05-21T01:21:13.648Z,15.60
2023-05-21T01:25:18.321Z,15.50
2023-05-21T01:29:21.257Z,15.50
2023-05-21T01:33:28.264Z,15.50
2023-05-21T01:37:36.001Z,15.40
2023-05-21T01:41:44.771Z,15.40
2023-05-21T01:45:48.859Z,15.40
2023-05-21T01:49:52.717Z,15.40
2023-05-21T01:53:55.736Z,15.30
2023-05-21T01:58:02.533Z,15.30
2023-05-21T02:02:06.507Z,15.20
2023-05-21T02:06:10.592Z,15.20
2023-05-21T02:10:13.969Z,15.10
2023-05-21T02:14:18.256Z,15.10
2023-05-21T02:18:21.468Z,15.10
2023-05-21T02:22:24.448Z,15.10
2023-05-21T02:26:27.384Z,15.00
2023-05-21T02:30:31.680Z,15.00
2023-05-21T02:34:36.535Z,15.00
2023-05-21T02:38:40.607Z,14.90
2023-05-21T02:42:43.449Z,14.90
2023-05-21T02:46:52.395Z,14.80
2023-05-21T02:50:55.527Z,14.70
2023-05-21T02:54:58.372Z,14.70
2023-05-21T02:59:01.214Z,14.70
2023-05-21T03:03:05.709Z,14.70
2023-05-21T03:07:10.116Z,14.70
2023-05-21T03:11:13.015Z,14.70
2023-05-21T03:15:15.958Z,14.60
2023-05-21T03:19:21.079Z,14.50
2023-05-21T03:23:24.039Z,14.40
2023-05-21T03:27:27.112Z,14.50
2023-05-21T03:31:30.959Z,14.40
2023-05-21T03:35:45.048Z,14.40
2023-05-21T03:39:48.075Z,14.40
2023-05-21T03:43:50.966Z,14.40
2023-05-21T03:47:56.226Z,14.30
2023-05-21T03:52:00.569Z,14.20
2023-05-21T03:56:04.051Z,14.30
2023-05-21T04:00:10.052Z,14.20
2023-05-21T04:04:18.740Z,14.20
2023-05-21T04:08:23.054Z,14.20
2023-05-21T04:12:25.931Z,14.20
2023-05-21T04:16:28.871Z,14.30
2023-05-21T04:20:31.725Z,14.30
2023-05-21T04:24:38.146Z,14.30
2023-05-21T04:28:54.064Z,14.40
2023-05-21T04:32:57.914Z,14.50
2023-05-21T04:37:00.945Z,14.50
2023-05-21T04:41:06.909Z,14.60
2023-05-21T04:45:11.343Z,14.60
2023-05-21T04:49:16.352Z,14.70
2023-05-21T04:53:19.630Z,14.80
2023-05-21T04:57:24.577Z,14.70
2023-05-21T05:01:29.407Z,14.80
2023-05-21T05:05:32.576Z,14.90
2023-05-21T05:09:35.547Z,15.00
2023-05-21T05:13:41.505Z,15.10
2023-05-21T05:17:45.287Z,15.10
2023-05-21T05:21:49.414Z,15.30
2023-05-21T05:25:52.608Z,15.50
2023-05-21T05:29:56.856Z,15.70
2023-05-21T05:33:59.742Z,15.80
2023-05-21T05:38:02.669Z,15.70
2023-05-21T05:42:06.250Z,15.90
2023-05-21T05:46:10.978Z,16.20
2023-05-21T05:50:13.861Z,16.50
2023-05-21T05:54:17.260Z,16.70
2023-05-21T05:58:20.150Z,16.80
2023-05-21T06:02:40.968Z,17.10
2023-05-21T06:06:45.234Z,17.20
2023-05-21T06:10:48.083Z,17.20
2023-05-21T06:14:51.364Z,17.20
2023-05-21T06:18:55.711Z,17.20
2023-05-21T06:22:58.530Z,17.00
2023-05-21T06:27:02.061Z,17.20
2023-05-21T06:31:05.274Z,17.40
2023-05-21T06:35:11.664Z,17.60
2023-05-21T06:39:15.064Z,17.50
2023-05-21T06:43:18.096Z,17.80
2023-05-21T06:47:39.352Z,18.30
2023-05-21T06:51:43.690Z,18.40
2023-05-21T06:55:49.126Z,18.60
2023-05-21T06:59:57.051Z,18.70
2023-05-21T07:04:00.154Z,18.70
2023-05-21T07:08:04.375Z,19.20
2023-05-21T07:12:08.017Z,19.30
2023-05-21T07:16:11.148Z,19.70
2023-05-21T07:20:15.921Z,20.30
2023-05-21T07:24:27.420Z,20.40
2023-05-21T07:28:30.778Z,20.30
2023-05-21T07:32:33.669Z,20.30
2023-05-21T07:36:36.996Z,20.30
2023-05-21T07:40:41.370Z,20.60
2023-05-21T07:44:44.329Z,20.60
2023-05-21T07:48:48.356Z,20.90
2023-05-21T07:52:51.261Z,21.20
2023-05-21T07:56:57.166Z,21.40
2023-05-21T08:01:22.611Z,21.60
2023-05-21T08:05:25.675Z,21.40
2023-05-21T08:09:28.610Z,21.60
2023-05-21T08:13:32.939Z,21.80
2023-05-21T08:17:36.064Z,21.80
2023-05-21T08:21:39.021Z,22.00
2023-05-21T08:25:42.064Z,22.00
2023-05-21T08:29:47.685Z,22.10
2023-05-21T08:33:54.148Z,22.10
2023-05-21T08:38:10.519Z,22.20
2023-05-21T08:42:37.305Z,22.10
2023-05-21T08:46:45.693Z,21.90
2023-05-21T08:50:48.983Z,22.10
2023-05-21T08:54:58.025Z,22.60
2023-05-21T08:59:02.672Z,22.30
2023-05-21T09:03:13.768Z,22.60
2023-05-21T09:07:20.614Z,22.60
2023-05-21T09:11:43.736Z,22.50
2023-05-21T09:15:47.605Z,22.50
2023-05-21T09:20:12.361Z,22.50
2023-05-21T09:24:18.744Z,22.60
2023-05-21T09:28:21.770Z,22.80
2023-05-21T09:32:24.648Z,22.90
2023-05-21T09:36:30.316Z,22.90
2023-05-21T09:40:33.117Z,23.10
2023-05-21T09:44:36.130Z,23.40
2023-05-21T09:48:42.106Z,23.50
2023-05-21T09:52:55.524Z,23.70
2023-05-21T09:56:58.566Z,23.60
2023-05-21T10:01:01.944Z,23.70
2023-05-21T10:05:09.434Z,24.00
2023-05-21T10:09:17.002Z,24.30
2023-05-21T10:13:24.452Z,24.80
2023-05-21T10:17:28.980Z,24.90
2023-05-21T10:21:33.322Z,25.00
2023-05-21T10:25:37.991Z,25.10
2023-05-21T10:29:42.880Z,25.10
2023-05-21T10:33:45.963Z,25.30
2023-05-21T10:37:50.419Z,25.00
2023-05-21T10:42:02.701Z,25.20
2023-05-21T10:46:25.207Z,25.50
2023-05-21T10:50:41.908Z,25.70
2023-05-21T10:55:09.036Z,25.70
2023-05-21T10:59:22.220Z,25.80
2023-05-21T11:03:26.330Z,25.70
2023-05-21T11:07:56.166Z,25.60
2023-05-21T11:12:00.239Z,25.40
2023-05-21T11:16:08.976Z,26.10
2023-05-21T11:20:15.086Z,26.70
2023-05-21T11:24:20.576Z,26.60
2023-05-21T11:28:34.189Z,27.10
2023-05-21T11:33:02.399Z,26.80
2023-05-21T11:37:31.464Z,27.00
2023-05-21T11:41:51.371Z,27.00
2023-05-21T11:45:54.199Z,27.10
2023-05-21T11:50:00.247Z,27.40
2023-05-21T11:54:03.272Z,27.00
2023-05-21T11:58:09.022Z,26.50
2023-05-21T12:02:16.211Z,26.30
2023-05-21T12:06:26.826Z,26.40
2023-05-21T12:10:29.722Z,27.00
2023-05-21T12:14:32.770Z,27.10
2023-05-21T12:18:37.270Z,27.70
2023-05-21T12:22:44.145Z,28.60
2023-05-21T12:26:48.050Z,29.40
2023-05-21T12:30:51.070Z,30.40
2023-05-21T12:34:55.486Z,32.00
2023-05-21T12:38:59.879Z,32.70
2023-05-21T12:43:02.755Z,33.50
2023-05-21T12:47:05.888Z,32.60
2023-05-21T12:51:08.657Z,33.40
2023-05-21T12:55:14.517Z,34.20
2023-05-21T12:59:17.267Z,33.80
2023-05-21T13:03:20.312Z,32.80
2023-05-21T13:07:23.724Z,31.60
2023-05-21T13:11:27.935Z,29.90
2023-05-21T13:15:31.409Z,29.00
2023-05-21T13:19:34.459Z,30.70
2023-05-21T13:23:37.369Z,31.50
2023-05-21T13:27:41.621Z,31.90
2023-05-21T13:31:45.539Z,30.40
2023-05-21T13:35:51.234Z,29.00
2023-05-21T13:39:54.124Z,28.30
2023-05-21T13:43:58.626Z,28.50
2023-05-21T13:48:01.547Z,28.60
2023-05-21T13:52:05.288Z,28.60
2023-05-21T13:56:08.458Z,28.60
2023-05-21T14:00:15.628Z,28.60
2023-05-21T14:04:19.940Z,28.20
2023-05-21T14:08:23.674Z,28.60
2023-05-21T14:12:26.672Z,28.60
2023-05-21T14:16:31.058Z,28.30
2023-05-21T14:20:34.002Z,28.10
2023-05-21T14:24:36.989Z,28.10
2023-05-21T14:28:39.840Z,28.00
2023-05-21T14:32:44.130Z,27.80
2023-05-21T14:36:47.035Z,27.90
2023-05-21T14:40:49.949Z,28.20
2023-05-21T14:44:52.829Z,28.30
2023-05-21T14:48:59.237Z,28.10
2023-05-21T14:53:05.185Z,28.10
2023-05-21T14:57:08.041Z,28.00
2023-05-21T15:01:11.507Z,27.90
2023-05-21T15:05:15.846Z,27.80
2023-05-21T15:09:18.730Z,27.40
2023-05-21T15:13:21.689Z,26.90
2023-05-21T15:17:24.597Z,27.00
2023-05-21T15:21:28.843Z,27.00
2023-05-21T15:25:31.717Z,27.00
2023-05-21T15:29:34.622Z,27.10
2023-05-21T15:33:37.530Z,27.20
2023-05-21T15:37:43.527Z,27.20
2023-05-21T15:41:46.339Z,26.70
2023-05-21T15:45:49.447Z,26.60
2023-05-21T15:49:52.553Z,26.50
2023-05-21T15:53:56.760Z,26.30
2023-05-21T15:58:01.412Z,26.20
2023-05-21T16:02:05.315Z,26.10
2023-05-21T16:06:08.329Z,26.00
2023-05-21T16:10:12.648Z,25.90
2023-05-21T16:14:15.542Z,25.80
2023-05-21T16:18:18.368Z,25.70
2023-05-21T16:22:22.053Z,25.50
2023-05-21T16:26:26.297Z,25.50
2023-05-21T16:30:29.264Z,25.50
2023-05-21T16:34:34.322Z,25.40
2023-05-21T16:38:37.172Z,25.30
2023-05-21T16:42:41.444Z,25.20
2023-05-21T16:46:44.324Z,25.10
2023-05-21T16:50:47.793Z,25.00
2023-05-21T16:54:50.622Z,24.90
2023-05-21T16:58:54.800Z,24.80
2023-05-21T17:02:58.001Z,24.70
2023-05-21T17:07:01.463Z,24.60
2023-05-21T17:11:04.392Z,24.50
2023-05-21T17:15:09.417Z,24.50
2023-05-21T17:19:12.313Z,24.40
2023-05-21T17:23:15.399Z,24.30
2023-05-21T17:27:18.295Z,24.20
2023-05-21T17:31:22.863Z,24.10
2023-05-21T17:35:25.763Z,24.00
2023-05-21T17:39:28.554Z,23.90
2023-05-21T17:43:32.055Z,23.80
2023-05-21T17:47:36.287Z,23.70
2023-05-21T17:51:39.513Z,23.60
2023-05-21T17:55:42.387Z,23.50
2023-05-21T17:59:45.513Z,23.40
2023-05-21T18:03:49.773Z,23.30
2023-05-21T18:07:52.691Z,23.10
2023-05-21T18:11:55.559Z,23.00
2023-05-21T18:15:59.603Z,22.90
2023-05-21T18:20:04.468Z,22.80
2023-05-21T18:24:08.093Z,22.70
2023-05-21T18:28:11.184Z,22.60
2023-05-21T18:32:15.233Z,22.50
2023-05-21T18:36:19.696Z,22.40
2023-05-21T18:40:24.943Z,22.30
2023-05-21T18:44:27.903Z,22.20
2023-05-21T18:48:30.947Z,22.10
2023-05-21T18:52:35.206Z,22.00
2023-05-21T18:56:38.071Z,21.90
2023-05-21T19:00:42.474Z,21.80
2023-05-21T19:04:45.714Z,21.70
2023-05-21T19:08:49.989Z,21.60
2023-05-21T19:12:52.881Z,21.50
2023-05-21T19:16:55.844Z,21.40
2023-05-21T19:21:00.133Z,21.30
2023-05-21T19:25:04.540Z,21.20
2023-05-21T19:29:09.425Z,21.10
2023-05-21T19:33:12.824Z,21.10
2023-05-21T19:37:15.764Z,21.00
2023-05-21T19:41:21.523Z,20.90
2023-05-21T19:45:25.352Z,20.80
2023-05-21T19:49:28.437Z,20.70
2023-05-21T19:53:31.295Z,20.70
2023-05-21T19:57:35.668Z,20.60
2023-05-21T20:01:40.105Z,20.50
2023-05-21T20:05:43.099Z,20.40
2023-05-21T20:09:45.977Z,20.40
2023-05-21T20:13:50.521Z,20.30
2023-05-21T20:17:53.368Z,20.20
2023-05-21T20:21:56.263Z,20.20
2023-05-21T20:25:59.109Z,20.10
2023-05-21T20:30:03.331Z,20.00
2023-05-21T20:34:07.702Z,20.00
2023-05-21T20:38:10.738Z,19.90
2023-05-21T20:42:14.983Z,19.80
2023-05-21T20:46:19.852Z,19.80
2023-05-21T20:50:25.824Z,19.70
2023-05-21T20:54:30.576Z,19.60
2023-05-21T20:58:33.652Z,19.50
2023-05-21T21:02:38.811Z,19.50
2023-05-21T21:06:42.002Z,19.40
2023-05-21T21:10:46.911Z,19.40
2023-05-21T21:14:49.900Z,19.30
2023-05-21T21:18:54.143Z,19.20
2023-05-21T21:22:57.036Z,19.20
2023-05-21T21:26:59.979Z,19.10
2023-05-21T21:31:02.862Z,19.00
2023-05-21T21:35:07.790Z,18.90
2023-05-21T21:39:10.920Z,18.90
2023-05-21T21:43:13.770Z,18.80
2023-05-21T21:47:16.640Z,18.80
2023-05-21T21:51:23.397Z,18.70
2023-05-21T21:55:26.475Z,18.60
2023-05-21T21:59:29.347Z,18.50
2023-05-21T22:03:33.533Z,18.30
2023-05-21T22:07:38.640Z,18.20
2023-05-21T22:11:41.603Z,18.20
2023-05-21T22:15:44.462Z,18.10
2023-05-21T22:19:47.665Z,18.10
2023-05-21T22:23:51.839Z,18.10
2023-05-21T22:27:54.706Z,18.00
2023-05-21T22:31:57.621Z,17.90
2023-05-21T22:36:00.532Z,17.80
2023-05-21T22:40:06.193Z,17.80
2023-05-21T22:44:09.067Z,17.70
2023-05-21T22:48:11.979Z,17.60
2023-05-21T22:52:16.544Z,17.60
2023-05-21T22:56:20.950Z,17.60
2023-05-21T23:00:24.349Z,17.50
2023-05-21T23:04:42.691Z,17.50
2023-05-21T23:08:46.609Z,17.40
2023-05-21T23:12:50.813Z,17.30
2023-05-21T23:16:53.896Z,17.30
2023-05-21T23:20:57.109Z,17.00
2023-05-21T23:25:00.051Z,16.80
2023-05-21T23:29:04.284Z,16.80
2023-05-21T23:33:07.389Z,16.70
2023-05-21T23:37:10.792Z,16.60
2023-05-21T23:41:15.006Z,16.50
2023-05-21T23:45:19.268Z,16.60
2023-05-21T23:49:22.067Z,16.50
2023-05-21T23:53:24.937Z,16.40
2023-05-21T23:57:27.704Z,16.20
